createdAt,value
2022-10-23T05:23:41.186Z,100484.81
2022-10-23T05:26:07.546Z,100481.88
2022-10-23T05:28:33.955Z,100470.53
2022-10-23T05:31:02.552Z,100476.78
2022-10-23T05:33:29.878Z,100474.63
2022-10-23T05:35:56.479Z,100480.88
2022-10-23T05:38:23.170Z,100479.22
2022-10-23T05:40:51.119Z,100488.44
2022-10-23T05:43:17.634Z,100485.97
2022-10-23T05:45:43.985Z,100477.84
2022-10-23T05:48:22.468Z,100478.09
2022-10-23T05:50:56.734Z,100475.94
2022-10-23T05:53:23.059Z,100476.78
2022-10-23T05:55:49.406Z,100472.16
2022-10-23T05:58:15.731Z,100465.44
2022-10-23T06:00:42.063Z,100462.47
2022-10-23T06:03:08.406Z,100462.47
2022-10-23T06:05:34.834Z,100466.56
2022-10-23T06:08:01.265Z,100458.16
2022-10-23T06:10:27.931Z,100457.09
2022-10-23T06:12:54.307Z,100455.19
2022-10-23T06:15:20.679Z,100458.81
2022-10-23T06:17:47.092Z,100458.03
2022-10-23T06:20:13.495Z,100464.63
2022-10-23T06:22:40.035Z,100460.13
2022-10-23T06:25:06.908Z,100465.66
2022-10-23T06:27:33.278Z,100463.84
2022-10-23T06:29:59.647Z,100452.81
2022-10-23T06:32:25.988Z,100460.22
2022-10-23T06:34:52.360Z,100454.66
2022-10-23T06:37:18.864Z,100458.50
2022-10-23T06:39:45.256Z,100452.31
2022-10-23T06:42:12.093Z,100453.25
2022-10-23T06:44:38.566Z,100452.75
2022-10-23T06:47:05.108Z,100451.16
2022-10-23T06:49:31.520Z,100454.75
2022-10-23T06:51:57.867Z,100453.97
2022-10-23T06:54:24.217Z,100455.69
2022-10-23T06:56:51.224Z,100454.13
2022-10-23T06:59:17.601Z,100451.69
2022-10-23T07:01:44.237Z,100454.72
2022-10-23T07:04:13.611Z,100447.69
2022-10-23T07:06:40.369Z,100453.69
2022-10-23T07:09:06.944Z,100447.19
2022-10-23T07:11:33.315Z,100459.69
2022-10-23T07:13:59.713Z,100450.47
2022-10-23T07:16:26.176Z,100449.41
2022-10-23T07:18:59.569Z,100442.06
2022-10-23T07:21:26.732Z,100435.78
2022-10-23T07:23:53.072Z,100431.47
2022-10-23T07:26:19.607Z,100426.28
2022-10-23T07:28:46.738Z,100424.63
2022-10-23T07:31:13.345Z,100430.38
2022-10-23T07:33:39.873Z,100429.81
2022-10-23T07:36:06.884Z,100423.88
2022-10-23T07:38:33.553Z,100435.84
2022-10-23T07:40:59.980Z,100433.66
2022-10-23T07:43:26.767Z,100430.41
2022-10-23T07:45:53.593Z,100419.25
2022-10-23T07:48:21.155Z,100414.09
2022-10-23T07:50:47.566Z,100424.41
2022-10-23T07:53:19.083Z,100420.06
2022-10-23T07:55:52.348Z,100419.50
2022-10-23T07:58:18.689Z,100416.78
2022-10-23T08:00:45.470Z,100415.41
2022-10-23T08:03:12.795Z,100414.63
2022-10-23T08:05:39.185Z,100422.22
2022-10-23T08:08:08.571Z,100408.59
2022-10-23T08:10:35.171Z,100408.03
2022-10-23T08:13:01.509Z,100409.13
2022-10-23T08:15:27.985Z,100407.75
2022-10-23T08:17:54.377Z,100407.19
2022-10-23T08:20:20.692Z,100395.75
2022-10-23T08:22:47.045Z,100399.00
2022-10-23T08:25:13.460Z,100399.56
2022-10-23T08:27:39.983Z,100385.38
2022-10-23T08:30:06.592Z,100394.91
2022-10-23T08:32:32.949Z,100401.44
2022-10-23T08:34:59.297Z,100401.97
2022-10-23T08:37:25.653Z,100390.81
2022-10-23T08:39:53.347Z,100393.25
2022-10-23T08:42:21.983Z,100396.56
2022-10-23T08:45:27.324Z,100400.09
2022-10-23T08:47:55.900Z,100402.53
2022-10-23T08:53:23.561Z,100392.72
2022-10-23T08:55:55.662Z,100394.03
2022-10-23T08:58:34.756Z,100394.63
2022-10-23T09:01:02.195Z,100387.81
2022-10-23T09:03:28.626Z,100378.81
2022-10-23T09:06:15.247Z,100372.81
2022-10-23T09:08:44.451Z,100383.44
2022-10-23T09:11:40.506Z,100390.53
2022-10-23T09:14:26.806Z,100395.97
2022-10-23T09:17:03.493Z,100388.34
2022-10-23T09:19:31.293Z,100386.16
2022-10-23T09:21:58.186Z,100387.53
2022-10-23T09:24:26.534Z,100378.00
2022-10-23T09:26:53.896Z,100384.00
2022-10-23T09:29:25.150Z,100382.34
2022-10-23T09:31:52.926Z,100380.69
2022-10-23T09:34:21.004Z,100375.50
2022-10-23T09:36:49.412Z,100368.41
2022-10-23T09:39:42.070Z,100377.34
2022-10-23T09:42:21.731Z,100371.34
2022-10-23T09:44:49.255Z,100366.44
2022-10-23T09:47:20.621Z,100372.41
2022-10-23T09:49:48.763Z,100369.41
2022-10-23T09:52:16.698Z,100368.59
2022-10-23T09:54:50.828Z,100363.13
2022-10-23T09:57:29.508Z,100363.13
2022-10-23T10:00:01.122Z,100362.06
2022-10-23T10:02:32.329Z,100356.03
2022-10-23T10:04:59.083Z,100359.91
2022-10-23T10:07:32.291Z,100356.63
2022-10-23T10:10:01.175Z,100356.91
2022-10-23T10:12:37.742Z,100358.00
2022-10-23T10:15:04.172Z,100349.28
2022-10-23T10:17:35.112Z,100339.78
2022-10-23T10:20:20.367Z,100345.22
2022-10-23T10:23:04.083Z,100340.31
2022-10-23T10:25:40.044Z,100340.59
2022-10-23T10:28:15.268Z,100332.41
2022-10-23T10:31:01.917Z,100334.84
2022-10-23T10:33:33.584Z,100320.13
2022-10-23T10:36:12.269Z,100319.06
2022-10-23T10:38:44.939Z,100321.75
2022-10-23T10:41:20.324Z,100317.34
2022-10-23T10:44:12.939Z,100317.34
2022-10-23T10:46:46.714Z,100309.34
2022-10-23T10:49:18.824Z,100298.13
2022-10-23T10:51:45.156Z,100295.91
2022-10-23T10:54:20.676Z,100299.94
2022-10-23T10:56:47.790Z,100305.59
2022-10-23T10:59:17.605Z,100301.19
2022-10-23T11:01:52.220Z,100303.31
2022-10-23T11:04:26.485Z,100298.34
2022-10-23T11:06:54.186Z,100302.88
2022-10-23T11:09:21.727Z,100293.28
2022-10-23T11:11:48.794Z,100291.28
2022-10-23T11:14:22.574Z,100290.16
2022-10-23T11:16:53.187Z,100284.66
2022-10-23T11:19:19.531Z,100284.56
2022-10-23T11:22:04.409Z,100268.13
2022-10-23T11:24:46.707Z,100260.13
2022-10-23T11:27:34.448Z,100254.56
2022-10-23T11:30:18.039Z,100246.47
2022-10-23T11:33:02.890Z,100238.88
2022-10-23T11:35:30.879Z,100253.97
2022-10-23T11:37:59.075Z,100241.19
2022-10-23T11:40:25.732Z,100231.78
2022-10-23T11:42:52.175Z,100227.25
2022-10-23T11:45:32.671Z,100223.84
2022-10-23T11:48:02.779Z,100218.78
2022-10-23T11:50:44.468Z,100202.81
2022-10-23T11:53:24.613Z,100192.91
2022-10-23T11:56:19.549Z,100195.53
2022-10-23T11:58:52.846Z,100189.47
2022-10-23T12:01:19.645Z,100197.59
2022-10-23T12:03:51.150Z,100186.03
2022-10-23T12:06:28.500Z,100188.16
2022-10-23T12:08:58.833Z,100188.38
2022-10-23T12:11:39.458Z,100182.31
2022-10-23T12:14:25.201Z,100171.06
2022-10-23T12:16:51.581Z,100172.06
2022-10-23T12:19:20.687Z,100165.50
2022-10-23T12:21:47.416Z,100167.66
2022-10-23T12:24:28.937Z,100155.59
2022-10-23T12:27:01.745Z,100156.91
2022-10-23T12:29:28.309Z,100154.97
2022-10-23T12:32:03.985Z,100149.97
2022-10-23T12:34:48.725Z,100151.31
2022-10-23T12:37:36.509Z,100152.63
2022-10-23T12:40:07.092Z,100133.66
2022-10-23T12:42:33.866Z,100125.66
2022-10-23T12:45:02.034Z,100124.56
2022-10-23T12:47:29.781Z,100124.25
2022-10-23T12:49:56.423Z,100129.72
2022-10-23T12:52:25.354Z,100127.28
2022-10-23T12:54:52.083Z,100125.13
2022-10-23T12:57:25.910Z,100123.03
2022-10-23T12:59:55.487Z,100122.81
2022-10-23T13:02:22.787Z,100115.00
2022-10-23T13:04:50.868Z,100112.88
2022-10-23T13:07:19.009Z,100106.38
2022-10-23T13:09:45.632Z,100106.16
2022-10-23T13:12:19.829Z,100088.72
2022-10-23T13:15:04.872Z,100084.66
2022-10-23T13:17:45.397Z,100082.53
2022-10-23T13:20:18.078Z,100083.97
2022-10-23T13:22:46.336Z,100075.53
2022-10-23T13:25:26.690Z,100065.22
2022-10-23T13:28:03.892Z,100058.41
2022-10-23T13:30:32.497Z,100064.19
2022-10-23T13:32:59.760Z,100078.47
2022-10-23T13:35:26.248Z,100061.56
2022-10-23T13:37:52.649Z,100044.63
2022-10-23T13:40:26.444Z,100046.84
2022-10-23T13:42:54.273Z,100051.81
2022-10-23T13:45:22.536Z,100059.53
2022-10-23T13:47:49.030Z,100060.94
2022-10-23T13:50:15.578Z,100059.31
2022-10-23T13:52:42.044Z,100052.53
2022-10-23T13:55:14.308Z,100061.03
2022-10-23T13:57:40.908Z,100049.88
2022-10-23T14:00:07.988Z,100046.66
2022-10-23T14:02:34.408Z,100040.66
2022-10-23T14:05:00.924Z,100045.31
2022-10-23T14:07:27.349Z,100046.75
2022-10-23T14:09:53.759Z,100036.38
2022-10-23T14:12:20.186Z,100046.00
2022-10-23T14:14:51.069Z,100046.31
2022-10-23T14:17:17.849Z,100019.56
2022-10-23T14:19:44.279Z,100021.25
2022-10-23T14:22:10.729Z,100010.94
2022-10-23T14:24:37.494Z,99998.44
2022-10-23T14:27:04.001Z,100007.53
2022-10-23T14:29:30.439Z,99996.41
2022-10-23T14:31:56.898Z,99995.41
2022-10-23T14:34:23.308Z,99988.91
2022-10-23T14:36:51.100Z,99983.53
2022-10-23T14:39:30.251Z,99991.22
2022-10-23T14:41:56.674Z,99974.09
2022-10-23T14:44:23.136Z,99971.16
2022-10-23T14:46:49.526Z,99969.53
2022-10-23T14:49:16.034Z,99963.56
2022-10-23T14:51:42.402Z,99965.75
2022-10-23T14:54:08.939Z,99955.75
2022-10-23T14:56:40.046Z,99940.47
2022-10-23T14:59:07.936Z,99952.81
2022-10-23T15:01:36.262Z,99941.88
2022-10-23T15:04:02.782Z,99928.28
2022-10-23T15:06:29.225Z,99940.06
2022-10-23T15:08:55.766Z,99925.06
2022-10-23T15:11:23.314Z,99927.28
2022-10-23T15:13:50.038Z,99906.25
2022-10-23T15:16:16.751Z,99910.88
2022-10-23T15:18:43.172Z,99916.66
2022-10-23T15:21:09.960Z,99901.38
2022-10-23T15:23:38.413Z,99911.50
2022-10-23T15:26:07.055Z,99903.59
2022-10-23T15:28:34.016Z,99894.59
2022-10-23T15:31:00.422Z,99896.78
2022-10-23T15:33:27.297Z,99890.81
2022-10-23T15:35:54.158Z,99897.38
2022-10-23T15:38:20.604Z,99885.94
2022-10-23T15:40:47.117Z,99869.03
2022-10-23T15:43:14.135Z,99866.91
2022-10-23T15:45:40.991Z,99859.81
2022-10-23T15:48:07.745Z,99858.81
2022-10-23T15:50:34.318Z,99864.28
2022-10-23T15:53:00.840Z,99848.50
2022-10-23T15:55:27.358Z,99867.09
2022-10-23T15:57:54.720Z,99861.13
2022-10-23T16:00:21.326Z,99866.59
2022-10-23T16:02:47.999Z,99860.59
2022-10-23T16:05:14.609Z,99848.06
2022-10-23T16:07:41.035Z,99833.38
2022-10-23T16:10:07.681Z,99844.31
2022-10-23T16:12:34.129Z,99844.63
2022-10-23T16:15:00.555Z,99844.63
2022-10-23T16:17:26.973Z,99819.56
2022-10-23T16:19:53.325Z,99801.53
2022-10-23T16:22:19.790Z,99792.81
2022-10-23T16:24:46.150Z,99788.47
2022-10-23T16:27:13.422Z,99789.91
2022-10-23T16:29:39.814Z,99792.66
2022-10-23T16:32:06.219Z,99796.16
2022-10-23T16:34:32.615Z,99787.97
2022-10-23T16:36:59.114Z,99792.66
2022-10-23T16:39:25.574Z,99783.31
2022-10-23T16:41:51.986Z,99772.41
2022-10-23T16:44:18.516Z,99772.41
2022-10-23T16:46:44.962Z,99777.84
2022-10-23T16:49:11.484Z,99777.84
2022-10-23T16:51:38.065Z,99776.25
2022-10-23T16:54:04.485Z,99775.44
2022-10-23T16:56:31.109Z,99774.63
2022-10-23T17:01:27.279Z,99796.47
2022-10-23T17:03:55.779Z,99794.06
2022-10-23T17:06:23.830Z,99803.03
2022-10-23T17:08:50.693Z,99788.59
2022-10-23T17:11:21.766Z,99776.84
2022-10-23T17:13:52.517Z,99785.88
2022-10-23T17:16:26.393Z,99776.03
2022-10-23T17:18:52.918Z,99791.00
2022-10-23T17:21:20.938Z,99784.72
2022-10-23T17:23:47.485Z,99775.75
2022-10-23T17:26:15.298Z,99762.41
2022-10-23T17:28:42.482Z,99764.59
2022-10-23T17:31:16.627Z,99774.72
2022-10-23T17:33:43.584Z,99774.72
2022-10-23T17:36:10.834Z,99771.78
2022-10-23T17:38:38.123Z,99782.38
2022-10-23T17:41:05.096Z,99788.16
2022-10-23T17:43:31.587Z,99790.06
2022-10-23T17:45:58.167Z,99783.53
2022-10-23T17:48:24.935Z,99781.91
2022-10-23T17:51:00.219Z,99781.38
2022-10-23T17:53:26.690Z,99791.19
2022-10-23T17:55:53.204Z,99792.81
2022-10-23T17:58:19.725Z,99793.03
2022-10-23T18:00:46.312Z,99777.75
2022-10-23T18:03:14.552Z,99779.09
2022-10-23T18:05:44.174Z,99779.88
2022-10-23T18:08:10.624Z,99777.94
2022-10-23T18:10:37.191Z,99788.88
2022-10-23T18:13:03.700Z,99783.41
2022-10-23T18:15:30.113Z,99780.69
2022-10-23T18:17:56.531Z,99816.75
2022-10-23T18:20:22.959Z,99814.72
2022-10-23T18:22:49.508Z,99828.38
2022-10-23T18:25:15.940Z,99830.78
2022-10-23T18:27:43.032Z,99826.75
2022-10-23T18:30:09.747Z,99835.00
2022-10-23T18:32:36.184Z,99842.09
2022-10-23T18:35:02.944Z,99853.59
2022-10-23T18:37:32.822Z,99856.63
2022-10-23T18:40:00.373Z,99847.91
2022-10-23T18:42:26.901Z,99843.25
2022-10-23T18:44:53.364Z,99860.25
2022-10-23T18:47:19.827Z,99862.47
2022-10-23T18:49:46.349Z,99869.59
2022-10-23T18:52:12.932Z,99894.72
2022-10-23T18:54:39.365Z,99869.94
2022-10-23T18:57:05.792Z,99896.47
2022-10-23T18:59:32.180Z,99879.09
2022-10-23T19:01:58.746Z,99886.25
2022-10-23T19:04:25.264Z,99911.56
2022-10-23T19:06:52.391Z,99921.75
2022-10-23T19:09:19.716Z,99893.16
2022-10-23T19:11:49.075Z,99915.84
2022-10-23T19:14:15.574Z,99902.28
2022-10-23T19:16:47.309Z,99910.22
2022-10-23T19:19:21.525Z,99917.66
2022-10-23T19:21:49.937Z,99916.41
2022-10-23T19:24:20.942Z,99923.25
2022-10-23T19:26:48.098Z,99912.38
2022-10-23T19:29:16.652Z,99915.72
2022-10-23T19:31:48.854Z,99913.03
2022-10-23T19:34:16.609Z,99912.59
2022-10-23T19:36:43.093Z,99926.75
2022-10-23T19:39:09.669Z,99921.38
2022-10-23T19:41:36.035Z,99909.19
2022-10-23T19:44:02.485Z,99910.56
2022-10-23T19:46:28.893Z,99912.53
2022-10-23T19:48:55.330Z,99913.69
2022-10-23T19:51:21.705Z,99915.66
2022-10-23T19:53:48.225Z,99907.00
2022-10-23T19:56:14.729Z,99904.06
2022-10-23T19:58:41.187Z,99919.03
2022-10-23T20:01:08.928Z,99913.66
2022-10-23T20:03:35.439Z,99907.16
2022-10-23T20:06:01.892Z,99914.81
2022-10-23T20:08:32.544Z,99911.84
2022-10-23T20:11:00.720Z,99891.47
2022-10-23T20:13:27.400Z,99881.97
2022-10-23T20:15:53.912Z,99898.06
2022-10-23T20:18:20.380Z,99885.03
2022-10-23T20:20:46.810Z,99879.63
2022-10-23T20:23:13.223Z,99883.72
2022-10-23T20:25:39.680Z,99869.31
2022-10-23T20:28:08.229Z,99875.03
2022-10-23T20:30:41.330Z,99882.97
2022-10-23T20:33:08.116Z,99882.13
2022-10-23T20:35:38.252Z,99869.41
2022-10-23T20:38:04.686Z,99861.25
2022-10-23T20:40:31.254Z,99844.91
2022-10-23T20:42:57.731Z,99838.94
2022-10-23T20:45:24.190Z,99809.00
2022-10-23T20:47:50.627Z,99803.56
2022-10-23T20:50:17.199Z,99810.66
2022-10-23T20:52:43.711Z,99803.28
2022-10-23T20:55:10.188Z,99784.25
2022-10-23T20:57:36.647Z,99775.00
2022-10-23T21:00:05.663Z,99764.09
2022-10-23T21:02:33.249Z,99766.53
2022-10-23T21:04:59.735Z,99763.03
2022-10-23T21:07:27.212Z,99764.94
2022-10-23T21:09:53.624Z,99793.75
2022-10-23T21:12:20.068Z,99798.38
2022-10-23T21:14:46.461Z,99801.91
2022-10-23T21:17:16.943Z,99794.03
2022-10-23T21:19:43.345Z,99792.94
2022-10-23T21:22:09.759Z,99789.13
2022-10-23T21:24:36.212Z,99788.31
2022-10-23T21:27:02.644Z,99782.06
2022-10-23T21:29:29.032Z,99778.53
2022-10-23T21:31:56.205Z,99783.44
2022-10-23T21:34:23.499Z,99787.25
2022-10-23T21:39:36.332Z,99781.84
2022-10-23T21:42:02.827Z,99783.47
2022-10-23T21:44:29.295Z,99778.63
2022-10-23T21:46:55.754Z,99775.94
2022-10-23T21:49:22.352Z,99780.59
2022-10-23T21:51:48.902Z,99762.94
2022-10-23T21:54:15.401Z,99772.19
2022-10-23T21:56:43.740Z,99760.25
2022-10-23T21:59:13.353Z,99758.63
2022-10-23T22:01:41.232Z,99751.56
2022-10-23T22:04:07.775Z,99753.75
2022-10-23T22:06:34.173Z,99748.31
2022-10-23T22:09:00.573Z,99747.28
2022-10-23T22:11:27.724Z,99748.38
2022-10-23T22:13:55.876Z,99736.94
2022-10-23T22:16:22.482Z,99747.03
2022-10-23T22:18:48.913Z,99743.75
2022-10-23T22:21:26.038Z,99737.53
2022-10-23T22:23:54.402Z,99748.44
2022-10-23T22:26:23.981Z,99770.72
2022-10-23T22:28:51.877Z,99758.22
2022-10-23T22:31:19.949Z,99768.03
2022-10-23T22:33:46.406Z,99775.13
2022-10-23T22:36:12.921Z,99787.06
2022-10-23T22:38:39.622Z,99794.16
2022-10-23T22:41:06.402Z,99787.59
2022-10-23T22:43:32.799Z,99798.47
2022-10-23T22:46:06.438Z,99801.47
2022-10-23T22:48:33.478Z,99796.28
2022-10-23T22:50:59.987Z,99812.59
2022-10-23T22:53:26.914Z,99809.59
2022-10-23T22:55:54.214Z,99835.69
2022-10-23T22:58:20.903Z,99816.38
2022-10-23T23:00:47.732Z,99826.16
2022-10-23T23:03:14.410Z,99831.59
2022-10-23T23:08:28.742Z,99834.81
2022-10-23T23:10:58.194Z,99822.34
2022-10-23T23:13:25.407Z,99825.88
2022-10-23T23:15:51.898Z,99828.59
2022-10-23T23:18:18.366Z,99828.59
2022-10-23T23:20:44.840Z,99830.78
2022-10-23T23:23:12.542Z,99815.03
2022-10-23T23:25:41.399Z,99853.66
2022-10-23T23:28:08.065Z,99835.44
2022-10-23T23:30:34.798Z,99829.69
2022-10-23T23:33:01.271Z,99839.22
2022-10-23T23:35:29.434Z,99828.91
2022-10-23T23:37:55.852Z,99811.53
2022-10-23T23:40:22.594Z,99820.22
2022-10-23T23:42:49.089Z,99824.03
2022-10-23T23:45:15.497Z,99816.16
2022-10-23T23:47:42.142Z,99809.09
2022-10-23T23:50:09.191Z,99806.09
2022-10-23T23:52:35.511Z,99804.47
2022-10-23T23:55:01.906Z,99795.22
2022-10-23T23:57:28.247Z,99798.47
2022-10-23T23:59:54.610Z,99812.06
